createdAt,value
2023-03-12T00:00:17.106Z,10.15
2023-03-12T00:02:44.022Z,10.20
2023-03-12T00:05:11.272Z,9.55
2023-03-12T00:07:39.381Z,9.38
2023-03-12T00:10:07.349Z,9.63
2023-03-12T00:12:34.344Z,8.75
2023-03-12T00:15:01.321Z,10.02
2023-03-12T00:17:29.356Z,9.20
2023-03-12T00:19:56.496Z,8.65
2023-03-12T00:22:23.386Z,8.95
2023-03-12T00:24:54.989Z,7.88
2023-03-12T00:27:22.147Z,8.35
2023-03-12T00:29:49.914Z,7.25
2023-03-12T00:32:16.950Z,6.72
2023-03-12T00:34:44.052Z,6.03
2023-03-12T00:37:10.927Z,6.10
2023-03-12T00:39:37.818Z,6.90
2023-03-12T00:42:04.988Z,6.90
2023-03-12T00:44:31.882Z,5.88
2023-03-12T00:46:59.012Z,6.38
2023-03-12T00:49:26.072Z,5.88
2023-03-12T00:51:54.087Z,5.55
2023-03-12T00:54:21.303Z,5.70
2023-03-12T00:56:48.753Z,5.00
2023-03-12T00:59:15.964Z,5.35
2023-03-12T01:01:43.201Z,5.57
2023-03-12T01:04:10.144Z,5.50
2023-03-12T01:06:37.128Z,5.05
2023-03-12T01:09:06.061Z,4.97
2023-03-12T01:11:33.709Z,5.68
2023-03-12T01:14:01.718Z,5.30
2023-03-12T01:16:30.347Z,5.40
2023-03-12T01:18:58.991Z,5.53
2023-03-12T01:21:26.602Z,5.72
2023-03-12T01:23:54.063Z,5.47
2023-03-12T01:26:20.960Z,5.55
2023-03-12T01:28:48.684Z,5.05
2023-03-12T01:31:21.486Z,5.03
2023-03-12T01:33:51.220Z,5.10
2023-03-12T01:36:22.773Z,4.85
2023-03-12T01:38:58.270Z,5.03
2023-03-12T01:41:27.941Z,5.57
2023-03-12T01:43:54.848Z,4.95
2023-03-12T01:46:30.862Z,5.55
2023-03-12T01:48:58.061Z,4.78
2023-03-12T01:51:29.281Z,5.07
2023-03-12T01:54:00.862Z,4.63
2023-03-12T01:56:32.266Z,4.72
2023-03-12T01:59:02.591Z,3.80
2023-03-12T02:01:30.787Z,4.22
2023-03-12T02:03:59.951Z,4.10
2023-03-12T02:06:49.371Z,3.65
2023-03-12T02:09:20.165Z,4.38
2023-03-12T02:11:48.421Z,4.45
2023-03-12T02:14:16.155Z,4.50
2023-03-12T02:16:43.948Z,4.10
2023-03-12T02:19:29.916Z,4.15
2023-03-12T02:21:58.280Z,4.22
2023-03-12T02:24:30.105Z,4.47
2023-03-12T02:26:58.003Z,4.65
2023-03-12T02:29:27.049Z,3.95
2023-03-12T02:31:56.889Z,4.30
2023-03-12T02:34:23.938Z,4.60
2023-03-12T02:36:50.901Z,4.22
2023-03-12T02:39:19.591Z,4.10
2023-03-12T02:41:53.816Z,3.70
2023-03-12T02:44:31.298Z,4.10
2023-03-12T02:47:01.210Z,3.72
2023-03-12T02:49:32.080Z,3.97
2023-03-12T02:52:00.609Z,3.97
2023-03-12T02:54:27.974Z,4.03
2023-03-12T02:56:54.997Z,3.78
2023-03-12T02:59:25.288Z,3.40
2023-03-12T03:01:55.874Z,3.15
2023-03-12T03:04:23.708Z,3.85
2023-03-12T03:06:51.025Z,3.97
2023-03-12T03:09:18.321Z,3.55
2023-03-12T03:11:45.316Z,3.83
2023-03-12T03:14:12.671Z,4.00
2023-03-12T03:16:39.623Z,3.15
2023-03-12T03:19:07.358Z,4.40
2023-03-12T03:21:35.777Z,3.60
2023-03-12T03:24:03.085Z,3.40
2023-03-12T03:26:29.972Z,3.67
2023-03-12T03:28:56.852Z,3.80
2023-03-12T03:31:23.859Z,3.85
2023-03-12T03:33:50.923Z,3.40
2023-03-12T03:36:18.891Z,3.72
2023-03-12T03:39:01.581Z,3.22
2023-03-12T03:41:30.288Z,3.30
2023-03-12T03:43:58.822Z,3.40
2023-03-12T03:46:26.691Z,3.88
2023-03-12T03:48:59.449Z,3.35
2023-03-12T03:51:27.266Z,3.80
2023-03-12T03:54:00.367Z,4.13
2023-03-12T03:56:28.153Z,3.30
2023-03-12T03:58:57.740Z,3.70
2023-03-12T04:01:24.676Z,2.95
2023-03-12T04:03:52.076Z,3.13
2023-03-12T04:06:19.058Z,3.65
2023-03-12T04:08:46.010Z,3.55
2023-03-12T04:11:19.360Z,3.35
2023-03-12T04:13:47.401Z,3.42
2023-03-12T04:16:17.178Z,3.38
2023-03-12T04:18:45.176Z,3.38
2023-03-12T04:21:13.655Z,3.30
2023-03-12T04:23:41.323Z,2.80
2023-03-12T04:26:09.844Z,2.88
2023-03-12T04:28:37.897Z,3.28
2023-03-12T04:31:07.558Z,2.92
2023-03-12T04:33:39.693Z,3.20
2023-03-12T04:36:08.691Z,2.90
2023-03-12T04:38:38.006Z,3.30
2023-03-12T04:41:10.319Z,3.83
2023-03-12T04:43:40.949Z,3.53
2023-03-12T04:46:08.528Z,3.10
2023-03-12T04:48:44.054Z,3.35
2023-03-12T04:51:11.692Z,3.50
2023-03-12T04:53:40.502Z,3.60
2023-03-12T04:56:09.376Z,4.03
2023-03-12T04:58:37.284Z,3.90
2023-03-12T05:01:05.631Z,3.40
2023-03-12T05:03:33.118Z,4.07
2023-03-12T05:06:00.543Z,4.13
2023-03-12T05:08:27.491Z,4.18
2023-03-12T05:10:54.432Z,4.15
2023-03-12T05:13:22.951Z,4.45
2023-03-12T05:15:53.409Z,4.15
2023-03-12T05:18:21.551Z,4.05
2023-03-12T05:20:58.963Z,4.90
2023-03-12T05:23:26.360Z,4.63
2023-03-12T05:25:53.312Z,4.57
2023-03-12T05:28:20.366Z,4.68
2023-03-12T05:30:47.941Z,4.32
2023-03-12T05:33:14.904Z,4.20
2023-03-12T05:35:41.882Z,4.65
2023-03-12T05:38:08.840Z,4.97
2023-03-12T05:40:35.686Z,4.43
2023-03-12T05:43:02.585Z,4.70
2023-03-12T05:45:29.599Z,4.53
2023-03-12T05:47:59.024Z,4.93
2023-03-12T05:50:27.856Z,4.30
2023-03-12T05:52:54.881Z,4.47
2023-03-12T05:55:21.857Z,4.65
2023-03-12T05:57:48.818Z,4.72
2023-03-12T06:00:16.297Z,5.18
2023-03-12T06:02:51.488Z,4.60
2023-03-12T06:05:19.254Z,4.43
2023-03-12T06:07:46.193Z,3.60
2023-03-12T06:10:13.072Z,4.47
2023-03-12T06:12:40.227Z,4.60
2023-03-12T06:15:07.737Z,4.18
2023-03-12T06:17:34.737Z,4.28
2023-03-12T06:20:01.732Z,4.63
2023-03-12T06:22:30.096Z,4.88
2023-03-12T06:24:57.218Z,5.18
2023-03-12T06:27:24.890Z,5.38
2023-03-12T06:29:52.008Z,4.35
2023-03-12T06:32:19.556Z,4.30
2023-03-12T06:34:46.450Z,4.65
2023-03-12T06:37:13.367Z,5.13
2023-03-12T06:39:40.236Z,5.47
2023-03-12T06:42:07.327Z,4.50
2023-03-12T06:44:34.235Z,5.10
2023-03-12T06:47:01.145Z,4.75
2023-03-12T06:49:32.161Z,5.28
2023-03-12T06:51:59.263Z,4.95
2023-03-12T06:54:26.101Z,5.25
2023-03-12T06:56:53.424Z,5.20
2023-03-12T06:59:21.753Z,5.32
2023-03-12T07:01:49.376Z,6.38
2023-03-12T07:04:16.399Z,6.15
2023-03-12T07:06:43.698Z,6.10
2023-03-12T07:09:10.658Z,5.97
2023-03-12T07:11:37.521Z,6.22
2023-03-12T07:14:04.402Z,6.78
2023-03-12T07:16:31.680Z,6.72
2023-03-12T07:18:59.085Z,7.03
2023-03-12T07:21:26.298Z,6.63
2023-03-12T07:23:53.621Z,6.78
2023-03-12T07:26:21.138Z,7.25
2023-03-12T07:28:48.052Z,8.05
2023-03-12T07:31:15.040Z,6.68
2023-03-12T07:33:42.074Z,6.68
2023-03-12T07:36:09.159Z,7.18
2023-03-12T07:38:36.308Z,6.80
2023-03-12T07:41:03.353Z,7.60
2023-03-12T07:43:30.425Z,7.38
2023-03-12T07:45:57.457Z,7.55
2023-03-12T07:48:24.426Z,7.95
2023-03-12T07:50:52.051Z,7.38
2023-03-12T07:53:19.285Z,7.53
2023-03-12T07:55:48.016Z,8.48
2023-03-12T07:58:18.218Z,8.27
2023-03-12T08:00:45.452Z,7.88
2023-03-12T08:03:13.487Z,8.65
2023-03-12T08:05:40.731Z,7.25
2023-03-12T08:08:07.783Z,7.88
2023-03-12T08:10:34.831Z,7.40
2023-03-12T08:13:01.757Z,8.50
2023-03-12T08:15:28.712Z,8.68
2023-03-12T08:17:55.593Z,9.05
2023-03-12T08:20:22.498Z,8.43
2023-03-12T08:22:49.361Z,9.52
2023-03-12T08:25:18.573Z,9.80
2023-03-12T08:27:45.436Z,8.70
2023-03-12T08:30:13.345Z,9.10
2023-03-12T08:32:40.505Z,9.77
2023-03-12T08:35:07.807Z,9.27
2023-03-12T08:37:34.674Z,10.05
2023-03-12T08:40:02.183Z,10.15
2023-03-12T08:42:29.020Z,9.93
2023-03-12T08:44:55.896Z,9.60
2023-03-12T08:47:22.862Z,9.65
2023-03-12T08:49:49.747Z,11.18
2023-03-12T08:52:16.830Z,10.25
2023-03-12T08:54:43.832Z,10.82
2023-03-12T08:57:10.946Z,10.35
2023-03-12T08:59:37.941Z,11.68
2023-03-12T09:02:05.218Z,10.50
2023-03-12T09:04:32.119Z,9.82
2023-03-12T09:07:01.234Z,10.93
2023-03-12T09:09:28.139Z,11.65
2023-03-12T09:11:55.193Z,10.35
2023-03-12T09:14:58.007Z,11.38
2023-03-12T09:17:09.156Z,12.10
2023-03-12T09:19:36.144Z,10.45
2023-03-12T09:22:03.028Z,15.38
2023-03-12T09:24:29.957Z,13.10
2023-03-12T09:26:56.911Z,13.55
2023-03-12T09:29:24.790Z,13.57
2023-03-12T09:31:52.092Z,14.07
2023-03-12T09:34:18.979Z,13.93
2023-03-12T09:36:45.832Z,13.48
2023-03-12T09:39:12.804Z,15.43
2023-03-12T09:41:41.752Z,19.67
2023-03-12T09:44:26.925Z,16.00
2023-03-12T09:47:01.206Z,14.93
2023-03-12T09:49:37.478Z,16.67
2023-03-12T09:52:21.744Z,15.68
2023-03-12T09:55:07.788Z,15.98
2023-03-12T09:57:34.907Z,16.88
2023-03-12T10:00:01.915Z,17.42
2023-03-12T10:03:05.934Z,18.45
2023-03-12T10:05:54.295Z,18.33
2023-03-12T10:08:45.827Z,17.63
2023-03-12T10:11:25.152Z,20.02
2023-03-12T10:14:29.527Z,19.77
2023-03-12T10:17:14.905Z,20.80
2023-03-12T10:20:03.848Z,18.98
2023-03-12T10:22:39.712Z,18.60
2023-03-12T10:25:06.556Z,21.55
2023-03-12T10:27:37.226Z,21.25
2023-03-12T10:30:16.847Z,22.98
2023-03-12T10:32:52.039Z,23.55
2023-03-12T10:35:25.252Z,21.33
2023-03-12T10:37:57.750Z,21.85
2023-03-12T10:40:34.174Z,20.23
2023-03-12T10:43:02.346Z,23.35
2023-03-12T10:45:56.646Z,20.00
2023-03-12T10:48:25.797Z,21.35
2023-03-12T10:51:10.757Z,21.65
2023-03-12T10:53:44.796Z,21.17
2023-03-12T10:56:22.008Z,19.25
2023-03-12T10:58:51.405Z,19.75
2023-03-12T11:01:30.582Z,21.33
2023-03-12T11:04:22.434Z,21.30
2023-03-12T11:07:03.951Z,18.20
2023-03-12T11:09:31.299Z,17.77
2023-03-12T11:11:58.225Z,18.17
2023-03-12T11:14:27.959Z,20.75
2023-03-12T11:16:56.565Z,20.25
2023-03-12T11:19:28.018Z,19.23
2023-03-12T11:22:04.963Z,16.10
2023-03-12T11:24:32.066Z,18.40
2023-03-12T11:27:01.933Z,17.95
2023-03-12T11:29:32.980Z,14.73
2023-03-12T11:32:30.089Z,15.55
2023-03-12T11:34:57.422Z,14.27
2023-03-12T11:37:45.455Z,16.20
2023-03-12T11:40:27.519Z,14.88
2023-03-12T11:43:07.727Z,13.30
2023-03-12T11:45:52.621Z,12.38
2023-03-12T11:48:27.438Z,13.75
2023-03-12T11:51:16.108Z,11.02
2023-03-12T11:54:08.174Z,10.43
2023-03-12T11:56:44.721Z,9.63
2023-03-12T11:59:49.635Z,9.15
2023-03-12T12:03:03.052Z,10.43
2023-03-12T12:05:36.060Z,10.13
2023-03-12T12:08:25.497Z,8.85
2023-03-12T12:11:14.481Z,10.35
2023-03-12T12:14:00.116Z,9.70
2023-03-12T12:16:46.673Z,9.38
2023-03-12T12:19:20.940Z,8.10
2023-03-12T12:22:08.070Z,8.40
2023-03-12T12:25:01.139Z,7.65
2023-03-12T12:27:33.054Z,9.88
2023-03-12T12:30:05.743Z,8.40
2023-03-12T12:33:01.927Z,6.63
2023-03-12T12:35:40.609Z,7.68
2023-03-12T12:38:30.637Z,5.30
2023-03-12T12:41:14.194Z,7.40
2023-03-12T12:43:44.195Z,7.00
2023-03-12T12:46:26.408Z,7.38
2023-03-12T12:48:56.901Z,8.50
2023-03-12T12:51:28.265Z,9.57
2023-03-12T12:54:43.956Z,9.70
2023-03-12T12:57:29.189Z,6.82
2023-03-12T13:00:14.860Z,6.57
2023-03-12T13:02:44.385Z,8.20
2023-03-12T13:05:21.477Z,9.00
2023-03-12T13:07:48.762Z,8.20
2023-03-12T13:10:34.199Z,7.88
2023-03-12T13:13:07.377Z,9.02
2023-03-12T13:15:40.084Z,8.48
2023-03-12T13:18:28.340Z,8.70
2023-03-12T13:20:55.214Z,8.43
2023-03-12T13:23:31.149Z,8.30
2023-03-12T13:26:04.824Z,8.18
2023-03-12T13:28:35.549Z,8.20
2023-03-12T13:31:36.442Z,7.78
2023-03-12T13:34:06.427Z,7.53
2023-03-12T13:36:37.024Z,8.30
2023-03-12T13:39:06.930Z,7.50
2023-03-12T13:41:41.145Z,6.82
2023-03-12T13:44:23.296Z,5.97
2023-03-12T13:47:04.337Z,7.10
2023-03-12T13:49:37.431Z,6.15
2023-03-12T13:52:18.526Z,7.25
2023-03-12T13:54:48.670Z,6.07
2023-03-12T13:57:55.244Z,5.35
2023-03-12T14:00:33.216Z,5.35
2023-03-12T14:03:13.802Z,6.80
2023-03-12T14:06:18.866Z,6.72
2023-03-12T14:08:54.726Z,4.57
2023-03-12T14:11:37.598Z,5.68
2023-03-12T14:14:10.741Z,5.38
2023-03-12T14:16:45.939Z,5.65
2023-03-12T14:19:14.474Z,5.03
2023-03-12T14:21:44.954Z,5.65
2023-03-12T14:24:27.161Z,5.28
2023-03-12T14:26:55.770Z,4.45
2023-03-12T14:29:25.641Z,5.72
2023-03-12T14:31:57.368Z,5.75
2023-03-12T14:34:27.473Z,5.82
2023-03-12T14:37:07.816Z,4.53
2023-03-12T14:39:46.550Z,4.18
2023-03-12T14:42:27.308Z,4.68
2023-03-12T14:45:04.562Z,3.88
2023-03-12T14:47:52.295Z,4.20
2023-03-12T14:50:22.209Z,4.10
2023-03-12T14:52:49.152Z,4.82
2023-03-12T14:55:20.974Z,5.35
2023-03-12T14:57:48.137Z,3.47
2023-03-12T15:00:27.826Z,3.78
2023-03-12T15:02:57.868Z,3.88
2023-03-12T15:05:25.278Z,4.95
2023-03-12T15:07:56.468Z,3.97
2023-03-12T15:10:25.959Z,4.30
2023-03-12T15:12:56.059Z,4.05
2023-03-12T15:15:36.275Z,4.63
2023-03-12T15:18:23.175Z,3.65
2023-03-12T15:20:51.574Z,4.68
2023-03-12T15:23:19.601Z,4.07
2023-03-12T15:25:46.960Z,4.07
2023-03-12T15:28:18.260Z,3.72
2023-03-12T15:30:45.193Z,4.83
2023-03-12T15:33:24.573Z,4.93
2023-03-12T15:36:23.258Z,3.78
2023-03-12T15:39:12.948Z,4.13
2023-03-12T15:41:49.274Z,4.55
2023-03-12T15:44:47.288Z,4.57
2023-03-12T15:47:23.863Z,4.00
2023-03-12T15:50:15.760Z,5.03
2023-03-12T15:52:57.661Z,5.82
2023-03-12T15:55:28.058Z,4.85
2023-03-12T15:57:56.932Z,4.10
2023-03-12T16:00:51.657Z,5.28
2023-03-12T16:03:20.924Z,4.90
2023-03-12T16:05:50.204Z,6.05
2023-03-12T16:08:21.672Z,4.32
2023-03-12T16:10:49.955Z,5.35
2023-03-12T16:13:19.922Z,4.78
2023-03-12T16:15:48.105Z,5.68
2023-03-12T16:18:17.811Z,5.30
2023-03-12T16:20:45.359Z,4.60
2023-03-12T16:23:12.951Z,4.70
2023-03-12T16:25:43.732Z,5.68
2023-03-12T16:28:13.590Z,5.18
2023-03-12T16:30:41.070Z,5.57
2023-03-12T16:33:09.284Z,4.20
2023-03-12T16:35:36.514Z,5.40
2023-03-12T16:38:03.497Z,5.22
2023-03-12T16:40:36.097Z,4.95
2023-03-12T16:43:06.657Z,5.63
2023-03-12T16:45:35.973Z,4.78
2023-03-12T16:48:06.478Z,5.97
2023-03-12T16:50:33.449Z,6.30
2023-03-12T16:53:02.486Z,6.40
2023-03-12T16:55:39.875Z,7.63
2023-03-12T16:58:07.160Z,6.68
2023-03-12T17:00:34.569Z,5.45
2023-03-12T17:03:01.989Z,5.55
2023-03-12T17:05:30.064Z,5.80
2023-03-12T17:07:58.353Z,4.93
2023-03-12T17:10:26.346Z,5.00
2023-03-12T17:12:53.820Z,6.13
2023-03-12T17:15:23.605Z,5.95
2023-03-12T17:17:50.634Z,5.30
2023-03-12T17:20:20.070Z,6.22
2023-03-12T17:22:47.148Z,7.20
2023-03-12T17:25:34.921Z,5.95
2023-03-12T17:28:01.786Z,7.00
2023-03-12T17:30:29.958Z,5.65
2023-03-12T17:33:11.859Z,5.97
2023-03-12T17:35:39.889Z,5.85
2023-03-12T17:38:07.525Z,6.57
2023-03-12T17:40:36.073Z,6.50
2023-03-12T17:43:02.907Z,4.80
2023-03-12T17:45:30.121Z,5.97
2023-03-12T17:47:57.126Z,3.90
2023-03-12T17:50:24.073Z,6.43
2023-03-12T17:52:51.437Z,6.32
2023-03-12T17:55:18.400Z,4.28
2023-03-12T17:57:45.375Z,5.68
2023-03-12T18:00:13.353Z,4.53
2023-03-12T18:02:41.484Z,4.35
2023-03-12T18:05:10.427Z,6.55
2023-03-12T18:07:38.006Z,4.90
2023-03-12T18:10:07.659Z,4.78
2023-03-12T18:12:35.104Z,4.78
2023-03-12T18:15:02.081Z,3.50
2023-03-12T18:17:29.034Z,3.58
2023-03-12T18:19:55.961Z,2.25
2023-03-12T18:22:24.384Z,2.72
2023-03-12T18:24:51.301Z,3.20
2023-03-12T18:27:18.210Z,3.25
2023-03-12T18:29:45.152Z,2.45
2023-03-12T18:32:12.002Z,2.60
2023-03-12T18:34:42.180Z,3.17
2023-03-12T18:37:09.085Z,2.53
2023-03-12T18:39:36.087Z,1.25
2023-03-12T18:42:03.020Z,2.30
2023-03-12T18:44:29.971Z,1.48
2023-03-12T18:46:56.929Z,2.13
2023-03-12T18:49:23.891Z,1.92
2023-03-12T18:51:55.781Z,1.75
2023-03-12T18:54:24.801Z,1.80
2023-03-12T18:56:51.816Z,2.22
2023-03-12T18:59:18.802Z,2.33
2023-03-12T19:01:45.993Z,2.25
2023-03-12T19:04:17.273Z,1.90
2023-03-12T19:06:51.285Z,1.90
2023-03-12T19:09:19.039Z,1.35
2023-03-12T19:11:49.539Z,2.85
2023-03-12T19:14:16.866Z,1.67
2023-03-12T19:16:43.964Z,2.20
2023-03-12T19:19:10.857Z,1.52
2023-03-12T19:21:37.715Z,1.35
2023-03-12T19:24:04.853Z,2.60
2023-03-12T19:26:31.775Z,2.08
2023-03-12T19:28:58.625Z,2.58
2023-03-12T19:31:25.741Z,1.90
2023-03-12T19:33:52.723Z,2.60
2023-03-12T19:36:19.687Z,3.88
2023-03-12T19:38:46.771Z,3.08
2023-03-12T19:41:13.723Z,2.97
2023-03-12T19:43:41.243Z,4.97
2023-03-12T19:46:08.315Z,4.40
2023-03-12T19:48:35.361Z,4.47
2023-03-12T19:51:10.662Z,4.25
2023-03-12T19:53:38.384Z,5.95
2023-03-12T19:56:05.656Z,4.30
2023-03-12T19:58:32.536Z,5.15
2023-03-12T20:01:00.783Z,4.78
2023-03-12T20:03:28.504Z,5.22
2023-03-12T20:05:55.941Z,4.28
2023-03-12T20:08:26.075Z,5.15
2023-03-12T20:10:52.969Z,4.82
2023-03-12T20:13:20.211Z,4.93
2023-03-12T20:15:48.390Z,4.90
2023-03-12T20:18:15.924Z,5.45
2023-03-12T20:20:43.248Z,6.32
2023-03-12T20:23:10.117Z,7.20
2023-03-12T20:25:43.282Z,7.88
2023-03-12T20:28:12.937Z,5.95
2023-03-12T20:30:42.460Z,5.93
2023-03-12T20:33:09.464Z,6.20
2023-03-12T20:35:36.594Z,6.00
2023-03-12T20:38:04.101Z,5.78
2023-03-12T20:40:31.153Z,6.55
2023-03-12T20:42:58.016Z,5.68
2023-03-12T20:45:24.961Z,5.30
2023-03-12T20:47:53.441Z,5.40
2023-03-12T20:50:20.427Z,5.85
2023-03-12T20:52:47.323Z,5.13
2023-03-12T20:55:14.214Z,5.40
2023-03-12T20:57:41.030Z,6.25
2023-03-12T21:00:08.668Z,6.13
2023-03-12T21:02:35.762Z,5.80
2023-03-12T21:05:02.785Z,7.18
2023-03-12T21:07:29.732Z,4.93
2023-03-12T21:09:56.649Z,4.97
2023-03-12T21:12:23.559Z,5.20
2023-03-12T21:14:50.481Z,5.28
2023-03-12T21:17:17.428Z,6.40
2023-03-12T21:19:44.661Z,4.65
2023-03-12T21:22:11.534Z,4.95
2023-03-12T21:24:38.477Z,5.28
2023-03-12T21:27:05.409Z,4.00
2023-03-12T21:29:32.369Z,4.53
2023-03-12T21:31:59.227Z,5.78
2023-03-12T21:34:29.424Z,4.82
2023-03-12T21:36:56.876Z,5.97
2023-03-12T21:39:23.765Z,4.50
2023-03-12T21:41:50.624Z,4.95
2023-03-12T21:44:17.483Z,5.07
2023-03-12T21:46:44.511Z,5.75
2023-03-12T21:49:13.788Z,5.53
2023-03-12T21:51:40.735Z,5.15
2023-03-12T21:54:07.691Z,5.78
2023-03-12T21:56:34.624Z,4.60
2023-03-12T21:59:01.580Z,6.43
2023-03-12T22:01:28.698Z,5.30
2023-03-12T22:03:55.921Z,5.32
2023-03-12T22:06:22.823Z,5.38
2023-03-12T22:08:49.883Z,5.65
2023-03-12T22:11:17.110Z,5.13
2023-03-12T22:13:44.156Z,5.80
2023-03-12T22:16:12.121Z,5.53
2023-03-12T22:18:41.673Z,6.55
2023-03-12T22:21:13.064Z,5.65
2023-03-12T22:23:39.958Z,6.93
2023-03-12T22:26:07.315Z,5.47
2023-03-12T22:28:34.616Z,5.25
2023-03-12T22:31:04.766Z,5.65
2023-03-12T22:33:32.367Z,6.10
2023-03-12T22:35:59.273Z,5.72
2023-03-12T22:38:26.423Z,5.70
2023-03-12T22:40:55.693Z,7.07
2023-03-12T22:43:25.353Z,5.05
2023-03-12T22:45:55.211Z,5.38
2023-03-12T22:48:22.047Z,6.00
2023-03-12T22:50:55.357Z,6.15
2023-03-12T22:53:22.370Z,5.68
2023-03-12T22:56:00.184Z,6.30
2023-03-12T22:58:28.039Z,5.57
2023-03-12T23:01:02.785Z,5.40
2023-03-12T23:03:31.375Z,5.60
2023-03-12T23:05:58.986Z,4.70
2023-03-12T23:08:26.540Z,5.03
2023-03-12T23:10:54.778Z,5.53
2023-03-12T23:13:22.223Z,5.68
2023-03-12T23:15:49.548Z,6.32
2023-03-12T23:18:17.105Z,5.20
2023-03-12T23:20:44.240Z,6.32
2023-03-12T23:23:11.438Z,6.53
2023-03-12T23:25:38.575Z,4.78
2023-03-12T23:28:05.425Z,6.28
2023-03-12T23:30:32.282Z,5.03
2023-03-12T23:32:59.197Z,6.18
2023-03-12T23:35:26.299Z,5.75
2023-03-12T23:37:56.440Z,6.53
2023-03-12T23:40:23.388Z,5.85
2023-03-12T23:42:50.240Z,6.55
2023-03-12T23:45:17.204Z,6.20
2023-03-12T23:47:44.098Z,5.82
2023-03-12T23:50:11.714Z,5.22
2023-03-12T23:52:38.619Z,5.65
2023-03-12T23:55:06.074Z,5.35
2023-03-12T23:57:33.007Z,4.70
2023-03-12T23:59:59.860Z,4.80
